createdAt,value
2023-04-20T00:01:49.375Z,19.98
2023-04-20T00:04:18.347Z,20.77
2023-04-20T00:06:47.227Z,20.73
2023-04-20T00:09:16.406Z,20.77
2023-04-20T00:11:44.942Z,22.75
2023-04-20T00:14:13.178Z,22.35
2023-04-20T00:16:41.482Z,23.50
2023-04-20T00:19:11.148Z,23.23
2023-04-20T00:21:39.499Z,21.75
2023-04-20T00:24:08.829Z,20.60
2023-04-20T00:26:37.227Z,22.38
2023-04-20T00:29:05.636Z,20.98
2023-04-20T00:31:34.034Z,22.58
2023-04-20T00:34:02.832Z,22.65
2023-04-20T00:36:32.557Z,22.15
2023-04-20T00:39:01.207Z,22.35
2023-04-20T00:41:30.472Z,22.50
2023-04-20T00:44:01.139Z,23.25
2023-04-20T00:46:29.513Z,22.90
2023-04-20T00:48:59.081Z,23.50
2023-04-20T00:51:29.154Z,22.42
2023-04-20T00:54:01.292Z,21.35
2023-04-20T00:56:29.650Z,21.48
2023-04-20T00:58:57.915Z,22.35
2023-04-20T01:01:27.222Z,22.70
2023-04-20T01:03:55.809Z,21.42
2023-04-20T01:06:24.140Z,20.95
2023-04-20T01:08:55.286Z,19.00
2023-04-20T01:11:24.873Z,19.25
2023-04-20T01:13:53.282Z,19.27
2023-04-20T01:16:22.562Z,18.92
2023-04-20T01:18:52.670Z,18.85
2023-04-20T01:21:23.045Z,17.50
2023-04-20T01:23:52.750Z,18.75
2023-04-20T01:26:23.387Z,19.35
2023-04-20T01:28:52.944Z,19.00
2023-04-20T01:31:22.002Z,18.25
2023-04-20T01:33:52.326Z,18.88
2023-04-20T01:36:22.534Z,18.52
2023-04-20T01:38:52.437Z,17.75
2023-04-20T01:41:21.109Z,18.40
2023-04-20T01:43:50.195Z,18.77
2023-04-20T01:46:18.763Z,18.17
2023-04-20T01:48:48.601Z,17.40
2023-04-20T01:51:16.903Z,17.27
2023-04-20T01:53:45.104Z,16.63
2023-04-20T01:56:14.771Z,16.52
2023-04-20T01:58:44.074Z,15.45
2023-04-20T02:01:12.364Z,15.63
2023-04-20T02:03:41.326Z,16.35
2023-04-20T02:06:09.835Z,16.63
2023-04-20T02:08:38.314Z,15.77
2023-04-20T02:11:09.400Z,16.75
2023-04-20T02:13:39.112Z,16.00
2023-04-20T02:16:08.297Z,16.75
2023-04-20T02:18:37.430Z,16.00
2023-04-20T02:21:08.055Z,15.65
2023-04-20T02:23:36.328Z,15.98
2023-04-20T02:26:04.669Z,17.27
2023-04-20T02:28:33.317Z,15.45
2023-04-20T02:31:03.003Z,16.52
2023-04-20T02:33:31.324Z,16.55
2023-04-20T02:35:59.598Z,15.60
2023-04-20T02:38:27.946Z,17.00
2023-04-20T02:40:56.189Z,17.73
2023-04-20T02:43:24.536Z,15.93
2023-04-20T02:45:53.006Z,17.70
2023-04-20T02:48:24.885Z,16.63
2023-04-20T02:50:56.681Z,16.73
2023-04-20T02:53:27.178Z,17.60
2023-04-20T02:56:13.889Z,17.05
2023-04-20T02:58:55.451Z,16.92
2023-04-20T03:01:31.269Z,17.73
2023-04-20T03:04:07.273Z,16.20
2023-04-20T03:06:42.757Z,17.02
2023-04-20T03:09:16.693Z,16.98
2023-04-20T03:12:10.268Z,15.50
2023-04-20T03:14:56.712Z,16.05
2023-04-20T03:17:50.923Z,17.42
2023-04-20T03:20:21.051Z,15.18
2023-04-20T03:22:49.480Z,17.00
2023-04-20T03:25:18.862Z,17.00
2023-04-20T03:27:53.807Z,16.77
2023-04-20T03:30:23.048Z,17.67
2023-04-20T03:32:57.320Z,16.73
2023-04-20T03:35:27.161Z,16.30
2023-04-20T03:37:55.593Z,17.45
2023-04-20T03:40:24.200Z,17.10
2023-04-20T03:42:52.591Z,16.33
2023-04-20T03:45:20.908Z,15.55
2023-04-20T03:47:50.848Z,15.52
2023-04-20T03:50:19.259Z,17.60
2023-04-20T03:52:48.994Z,16.67
2023-04-20T03:55:17.671Z,17.00
2023-04-20T03:57:51.881Z,16.92
2023-04-20T04:00:20.334Z,16.90
2023-04-20T04:02:48.809Z,16.75
2023-04-20T04:05:26.708Z,17.80
2023-04-20T04:07:56.834Z,18.52
2023-04-20T04:10:25.393Z,18.30
2023-04-20T04:12:53.847Z,18.50
2023-04-20T04:15:22.419Z,19.35
2023-04-20T04:17:59.081Z,19.10
2023-04-20T04:20:27.566Z,19.67
2023-04-20T04:22:57.494Z,18.90
2023-04-20T04:25:39.762Z,18.13
2023-04-20T04:28:08.698Z,18.80
2023-04-20T04:30:42.177Z,17.20
2023-04-20T04:33:14.715Z,17.55
2023-04-20T04:35:45.900Z,18.50
2023-04-20T04:38:16.647Z,15.77
2023-04-20T04:40:48.712Z,17.85
2023-04-20T04:43:19.528Z,16.88
2023-04-20T04:45:58.582Z,18.00
2023-04-20T04:48:27.930Z,16.60
2023-04-20T04:50:56.173Z,17.05
2023-04-20T04:53:26.086Z,15.55
2023-04-20T04:55:54.382Z,17.52
2023-04-20T04:58:22.618Z,16.98
2023-04-20T05:00:51.127Z,16.85
2023-04-20T05:03:19.476Z,17.20
2023-04-20T05:05:47.941Z,16.58
2023-04-20T05:08:16.307Z,17.85
2023-04-20T05:10:46.077Z,16.70
2023-04-20T05:13:14.441Z,16.88
2023-04-20T05:15:43.983Z,17.55
2023-04-20T05:18:12.373Z,16.08
2023-04-20T05:20:40.676Z,16.13
2023-04-20T05:23:09.119Z,17.08
2023-04-20T05:25:37.456Z,17.58
2023-04-20T05:28:07.296Z,15.70
2023-04-20T05:30:35.582Z,16.23
2023-04-20T05:33:03.939Z,15.90
2023-04-20T05:35:32.351Z,14.35
2023-04-20T05:38:02.674Z,13.50
2023-04-20T05:40:31.034Z,14.60
2023-04-20T05:42:59.388Z,13.68
2023-04-20T05:45:29.101Z,12.95
2023-04-20T05:47:58.520Z,12.45
2023-04-20T05:50:27.919Z,12.68
2023-04-20T05:52:56.161Z,11.18
2023-04-20T05:55:24.658Z,11.80
2023-04-20T05:57:53.480Z,11.32
2023-04-20T06:00:25.781Z,11.43
2023-04-20T06:02:56.166Z,11.32
2023-04-20T06:05:24.615Z,11.25
2023-04-20T06:07:53.212Z,11.55
2023-04-20T06:10:21.781Z,10.85
2023-04-20T06:12:49.988Z,10.18
2023-04-20T06:15:18.749Z,10.20
2023-04-20T06:17:47.121Z,11.00
2023-04-20T06:20:16.958Z,10.85
2023-04-20T06:22:45.899Z,11.25
2023-04-20T06:25:15.557Z,10.63
2023-04-20T06:27:44.151Z,9.45
2023-04-20T06:30:13.431Z,9.93
2023-04-20T06:32:41.758Z,11.02
2023-04-20T06:35:10.716Z,9.75
2023-04-20T06:37:40.982Z,10.15
2023-04-20T06:40:10.328Z,9.75
2023-04-20T06:42:38.780Z,8.18
2023-04-20T06:45:08.528Z,8.55
2023-04-20T06:47:37.013Z,8.55
2023-04-20T06:50:09.880Z,9.43
2023-04-20T06:52:41.563Z,8.90
2023-04-20T06:55:11.015Z,8.05
2023-04-20T06:57:39.970Z,7.88
2023-04-20T07:00:10.098Z,7.07
2023-04-20T07:02:46.041Z,8.25
2023-04-20T07:05:14.961Z,8.23
2023-04-20T07:07:48.555Z,7.13
2023-04-20T07:10:18.280Z,7.75
2023-04-20T07:12:46.776Z,7.32
2023-04-20T07:15:15.381Z,6.07
2023-04-20T07:17:43.716Z,5.95
2023-04-20T07:20:13.034Z,6.45
2023-04-20T07:22:41.780Z,6.40
2023-04-20T07:25:12.207Z,5.53
2023-04-20T07:27:41.863Z,6.75
2023-04-20T07:30:12.421Z,5.88
2023-04-20T07:32:42.747Z,6.35
2023-04-20T07:35:12.375Z,7.10
2023-04-20T07:37:40.963Z,6.15
2023-04-20T07:40:12.400Z,6.78
2023-04-20T07:42:41.279Z,6.93
2023-04-20T07:45:12.126Z,6.70
2023-04-20T07:47:41.195Z,6.80
2023-04-20T07:50:12.818Z,6.15
2023-04-20T07:52:41.140Z,6.53
2023-04-20T07:55:14.237Z,6.45
2023-04-20T07:57:42.910Z,6.55
2023-04-20T08:00:13.084Z,6.72
2023-04-20T08:02:41.969Z,5.70
2023-04-20T08:05:11.449Z,6.32
2023-04-20T08:07:40.856Z,5.85
2023-04-20T08:10:11.681Z,6.30
2023-04-20T08:12:40.922Z,5.63
2023-04-20T08:15:11.077Z,6.57
2023-04-20T08:17:40.014Z,5.45
2023-04-20T08:20:11.689Z,5.95
2023-04-20T08:22:40.823Z,5.40
2023-04-20T08:25:10.170Z,5.78
2023-04-20T08:27:44.700Z,5.07
2023-04-20T08:30:13.739Z,5.72
2023-04-20T08:32:42.472Z,5.82
2023-04-20T08:35:11.004Z,5.57
2023-04-20T08:37:39.688Z,5.97
2023-04-20T08:40:09.709Z,5.80
2023-04-20T08:42:39.746Z,5.75
2023-04-20T08:45:09.195Z,4.95
2023-04-20T08:47:38.671Z,5.88
2023-04-20T08:50:09.833Z,4.78
2023-04-20T08:52:39.856Z,4.45
2023-04-20T08:55:11.736Z,4.25
2023-04-20T08:57:44.587Z,4.68
2023-04-20T09:00:18.816Z,4.47
2023-04-20T09:02:51.986Z,5.03
2023-04-20T09:05:31.832Z,4.55
2023-04-20T09:08:05.372Z,3.90
2023-04-20T09:10:42.569Z,3.80
2023-04-20T09:13:22.806Z,3.90
2023-04-20T09:15:57.089Z,4.40
2023-04-20T09:18:28.549Z,3.10
2023-04-20T09:20:57.426Z,3.05
2023-04-20T09:23:25.746Z,4.18
2023-04-20T09:25:54.179Z,3.10
2023-04-20T09:28:24.118Z,2.97
2023-04-20T09:30:52.576Z,3.17
2023-04-20T09:33:21.097Z,2.63
2023-04-20T09:35:50.131Z,4.13
2023-04-20T09:38:19.042Z,2.97
2023-04-20T09:41:08.324Z,3.20
2023-04-20T09:43:38.398Z,3.97
2023-04-20T09:46:08.946Z,3.00
2023-04-20T09:48:42.915Z,3.20
2023-04-20T09:51:16.733Z,3.08
2023-04-20T09:53:54.774Z,3.22
2023-04-20T09:56:34.470Z,2.85
2023-04-20T09:59:23.079Z,3.30
2023-04-20T10:01:54.751Z,3.38
2023-04-20T10:04:23.732Z,3.45
2023-04-20T10:07:03.383Z,3.17
2023-04-20T10:09:37.926Z,3.78
2023-04-20T10:12:12.595Z,3.33
2023-04-20T10:15:04.935Z,2.70
2023-04-20T10:17:59.825Z,2.90
2023-04-20T10:20:37.725Z,2.75
2023-04-20T10:23:20.082Z,2.22
2023-04-20T10:26:10.502Z,3.55
2023-04-20T10:28:55.577Z,2.95
2023-04-20T10:31:36.145Z,2.53
2023-04-20T10:34:10.568Z,2.63
2023-04-20T10:36:47.823Z,2.60
2023-04-20T10:39:32.945Z,2.70
2023-04-20T10:42:02.080Z,3.38
2023-04-20T10:44:38.125Z,2.60
2023-04-20T10:47:07.954Z,2.38
2023-04-20T10:49:36.799Z,2.53
2023-04-20T10:52:14.420Z,2.80
2023-04-20T10:54:48.317Z,3.38
2023-04-20T10:57:17.891Z,2.50
2023-04-20T10:59:47.000Z,3.45
2023-04-20T11:02:17.098Z,2.70
2023-04-20T11:04:47.840Z,2.30
2023-04-20T11:07:20.288Z,2.42
2023-04-20T11:09:55.575Z,3.20
2023-04-20T11:12:24.097Z,2.67
2023-04-20T11:14:54.236Z,2.78
2023-04-20T11:18:05.096Z,2.90
2023-04-20T11:20:35.424Z,2.80
2023-04-20T11:23:09.315Z,3.15
2023-04-20T11:25:43.015Z,2.63
2023-04-20T11:28:13.010Z,2.45
2023-04-20T11:30:42.218Z,3.00
2023-04-20T11:33:20.248Z,3.42
2023-04-20T11:36:21.595Z,3.50
2023-04-20T11:38:52.455Z,2.83
2023-04-20T11:41:42.792Z,3.17
2023-04-20T11:44:12.092Z,3.47
2023-04-20T11:46:40.815Z,3.00
2023-04-20T11:49:09.131Z,3.17
2023-04-20T11:51:39.045Z,2.83
2023-04-20T11:54:07.546Z,3.10
2023-04-20T11:56:46.262Z,3.35
2023-04-20T11:59:26.631Z,3.60
2023-04-20T12:01:55.122Z,2.75
2023-04-20T12:04:35.700Z,3.13
2023-04-20T12:07:05.615Z,2.85
2023-04-20T12:09:43.132Z,2.63
2023-04-20T12:12:11.929Z,2.90
2023-04-20T12:14:40.385Z,2.80
2023-04-20T12:17:23.079Z,3.20
2023-04-20T12:19:52.610Z,2.50
2023-04-20T12:22:27.710Z,2.63
2023-04-20T12:25:04.414Z,3.20
2023-04-20T12:27:35.183Z,3.05
2023-04-20T12:30:07.040Z,2.78
2023-04-20T12:32:38.090Z,2.88
2023-04-20T12:35:08.531Z,2.97
2023-04-20T12:37:56.104Z,2.60
2023-04-20T12:40:25.264Z,3.00
2023-04-20T12:43:33.174Z,3.00
2023-04-20T12:46:01.652Z,3.15
2023-04-20T12:48:44.183Z,3.53
2023-04-20T12:51:16.326Z,3.13
2023-04-20T12:54:17.713Z,3.10
2023-04-20T12:56:57.168Z,3.05
2023-04-20T12:59:31.385Z,2.70
2023-04-20T13:01:59.962Z,3.00
2023-04-20T13:04:31.613Z,2.80
2023-04-20T13:07:06.362Z,3.33
2023-04-20T13:13:18.914Z,2.92
2023-04-20T13:15:56.610Z,3.53
2023-04-20T13:18:29.440Z,3.63
2023-04-20T13:20:59.269Z,2.90
2023-04-20T13:23:31.462Z,3.47
2023-04-20T13:26:04.508Z,3.58
2023-04-20T13:28:50.357Z,3.45
2023-04-20T13:31:18.908Z,3.08
2023-04-20T13:33:47.601Z,3.55
2023-04-20T13:36:16.169Z,3.08
2023-04-20T13:38:45.042Z,3.63
2023-04-20T13:41:17.318Z,3.03
2023-04-20T13:43:54.714Z,3.72
2023-04-20T13:46:28.521Z,3.28
2023-04-20T13:48:57.075Z,3.25
2023-04-20T13:51:27.100Z,3.20
2023-04-20T13:53:58.484Z,3.85
2023-04-20T13:56:29.961Z,4.00
2023-04-20T13:58:59.865Z,3.25
2023-04-20T14:01:28.295Z,3.97
2023-04-20T14:03:56.923Z,2.70
2023-04-20T14:06:25.645Z,3.45
2023-04-20T14:08:54.206Z,3.13
2023-04-20T14:11:26.981Z,4.15
2023-04-20T14:13:55.417Z,3.83
2023-04-20T14:16:26.850Z,3.58
2023-04-20T14:19:04.548Z,4.15
2023-04-20T14:21:33.925Z,4.05
2023-04-20T14:24:02.833Z,3.92
2023-04-20T14:26:31.121Z,4.38
2023-04-20T14:28:59.639Z,3.28
2023-04-20T14:31:35.404Z,3.65
2023-04-20T14:34:04.115Z,3.42
2023-04-20T14:36:32.598Z,3.70
2023-04-20T14:39:01.678Z,4.28
2023-04-20T14:41:32.305Z,4.00
2023-04-20T14:44:01.846Z,4.00
2023-04-20T14:46:31.649Z,3.90
2023-04-20T14:48:59.978Z,3.65
2023-04-20T14:51:33.521Z,3.95
2023-04-20T14:54:01.881Z,4.25
2023-04-20T14:56:30.244Z,4.25
2023-04-20T14:59:01.596Z,5.00
2023-04-20T15:01:31.433Z,3.55
2023-04-20T15:03:59.893Z,4.47
2023-04-20T15:06:28.439Z,4.05
2023-04-20T15:08:56.924Z,3.90
2023-04-20T15:11:25.676Z,3.95
2023-04-20T15:13:54.390Z,4.57
2023-04-20T15:16:55.474Z,4.20
2023-04-20T15:19:46.176Z,3.78
2023-04-20T15:22:14.832Z,4.68
2023-04-20T15:24:43.273Z,4.28
2023-04-20T15:27:11.755Z,4.20
2023-04-20T15:29:40.358Z,4.95
2023-04-20T15:32:10.568Z,4.28
2023-04-20T15:34:39.336Z,4.63
2023-04-20T15:37:07.699Z,4.35
2023-04-20T15:39:36.053Z,4.13
2023-04-20T15:42:04.490Z,5.03
2023-04-20T15:44:32.785Z,4.53
2023-04-20T15:47:02.428Z,4.50
2023-04-20T15:49:37.344Z,4.60
2023-04-20T15:52:09.033Z,4.72
2023-04-20T15:54:41.316Z,4.40
2023-04-20T15:57:09.708Z,4.50
2023-04-20T15:59:38.052Z,4.55
2023-04-20T16:02:06.921Z,4.57
2023-04-20T16:04:37.048Z,5.00
2023-04-20T16:07:05.535Z,4.82
2023-04-20T16:09:33.948Z,4.75
2023-04-20T16:12:05.593Z,4.78
2023-04-20T16:14:34.190Z,4.40
2023-04-20T16:17:03.456Z,4.07
2023-04-20T16:19:32.382Z,4.95
2023-04-20T16:22:02.187Z,5.15
2023-04-20T16:24:30.522Z,4.68
2023-04-20T16:27:02.835Z,4.97
2023-04-20T16:29:33.869Z,4.95
2023-04-20T16:32:04.710Z,5.78
2023-04-20T16:34:33.050Z,4.88
2023-04-20T16:37:02.802Z,5.95
2023-04-20T16:39:31.103Z,4.82
2023-04-20T16:41:59.469Z,5.20
2023-04-20T16:44:27.798Z,5.82
2023-04-20T16:46:56.360Z,5.30
2023-04-20T16:49:31.039Z,5.70
2023-04-20T16:51:59.502Z,5.78
2023-04-20T16:54:29.226Z,5.03
2023-04-20T16:56:57.536Z,6.05
2023-04-20T16:59:32.213Z,5.43
2023-04-20T17:02:00.814Z,5.68
2023-04-20T17:04:29.642Z,5.65
2023-04-20T17:06:57.976Z,5.75
2023-04-20T17:09:26.221Z,5.85
2023-04-20T17:11:56.557Z,5.70
2023-04-20T17:14:24.848Z,5.57
2023-04-20T17:16:54.271Z,5.60
2023-04-20T17:19:23.481Z,5.78
2023-04-20T17:21:51.740Z,6.05
2023-04-20T17:24:20.302Z,6.60
2023-04-20T17:26:48.811Z,5.63
2023-04-20T17:29:18.772Z,6.32
2023-04-20T17:31:47.080Z,5.90
2023-04-20T17:34:15.451Z,5.50
2023-04-20T17:36:43.767Z,5.25
2023-04-20T17:39:12.124Z,6.15
2023-04-20T17:41:40.389Z,6.90
2023-04-20T17:44:10.264Z,6.05
2023-04-20T17:46:42.176Z,6.50
2023-04-20T17:49:10.476Z,6.60
2023-04-20T17:51:38.776Z,5.25
2023-04-20T17:54:07.843Z,6.10
2023-04-20T17:56:36.357Z,6.15
2023-04-20T17:59:05.541Z,6.20
2023-04-20T18:01:35.933Z,6.82
2023-04-20T18:04:06.392Z,6.93
2023-04-20T18:06:35.075Z,7.07
2023-04-20T18:09:04.951Z,7.32
2023-04-20T18:11:33.478Z,8.43
2023-04-20T18:14:01.788Z,7.00
2023-04-20T18:16:30.121Z,7.55
2023-04-20T18:18:58.512Z,8.30
2023-04-20T18:21:29.681Z,8.15
2023-04-20T18:23:58.062Z,8.35
2023-04-20T18:26:26.320Z,8.23
2023-04-20T18:28:54.739Z,7.70
2023-04-20T18:31:23.130Z,8.30
2023-04-20T18:33:51.486Z,8.20
2023-04-20T18:36:21.829Z,8.30
2023-04-20T18:38:51.666Z,9.38
2023-04-20T18:41:20.008Z,9.30
2023-04-20T18:43:49.684Z,8.82
2023-04-20T18:46:18.035Z,9.20
2023-04-20T18:48:46.452Z,9.10
2023-04-20T18:51:14.782Z,9.18
2023-04-20T18:53:43.183Z,8.35
2023-04-20T18:56:13.131Z,8.57
2023-04-20T18:58:41.644Z,9.80
2023-04-20T19:01:09.984Z,9.73
2023-04-20T19:03:38.479Z,9.65
2023-04-20T19:06:06.958Z,11.05
2023-04-20T19:08:35.498Z,9.75
2023-04-20T19:11:03.749Z,10.35
2023-04-20T19:13:33.360Z,10.13
2023-04-20T19:16:01.768Z,10.07
2023-04-20T19:18:30.173Z,10.07
2023-04-20T19:20:58.432Z,9.95
2023-04-20T19:23:26.760Z,10.05
2023-04-20T19:25:55.176Z,10.48
2023-04-20T19:28:24.316Z,11.32
2023-04-20T19:30:54.095Z,11.40
2023-04-20T19:33:22.404Z,11.35
2023-04-20T19:35:51.575Z,12.13
2023-04-20T19:38:20.252Z,11.32
2023-04-20T19:40:49.688Z,11.10
2023-04-20T19:43:17.982Z,11.65
2023-04-20T19:45:46.377Z,10.98
2023-04-20T19:48:16.377Z,11.95
2023-04-20T19:50:44.782Z,11.23
2023-04-20T19:53:13.176Z,11.05
2023-04-20T19:55:41.487Z,11.95
2023-04-20T19:58:10.941Z,11.18
2023-04-20T20:00:39.305Z,11.25
2023-04-20T20:03:08.526Z,11.25
2023-04-20T20:05:38.603Z,11.85
2023-04-20T20:08:06.867Z,11.07
2023-04-20T20:10:35.457Z,11.15
2023-04-20T20:13:04.013Z,12.93
2023-04-20T20:15:32.485Z,11.95
2023-04-20T20:18:01.072Z,10.70
2023-04-20T20:20:30.501Z,10.52
2023-04-20T20:23:00.851Z,11.18
2023-04-20T20:25:29.330Z,11.48
2023-04-20T20:27:57.682Z,10.13
2023-04-20T20:30:26.094Z,11.27
2023-04-20T20:32:54.516Z,10.88
2023-04-20T20:35:23.870Z,11.77
2023-04-20T20:37:54.485Z,12.63
2023-04-20T20:40:24.468Z,12.65
2023-04-20T20:42:53.019Z,14.05
2023-04-20T20:45:22.003Z,13.30
2023-04-20T20:47:50.540Z,13.98
2023-04-20T20:50:19.712Z,14.35
2023-04-20T20:52:48.130Z,14.10
2023-04-20T20:55:16.470Z,14.50
2023-04-20T20:57:46.828Z,13.13
2023-04-20T21:00:16.307Z,13.55
2023-04-20T21:02:44.852Z,13.13
2023-04-20T21:05:13.495Z,14.45
2023-04-20T21:07:41.736Z,13.20
2023-04-20T21:10:11.978Z,13.68
2023-04-20T21:12:40.500Z,13.38
2023-04-20T21:15:11.832Z,14.73
2023-04-20T21:17:40.479Z,13.13
2023-04-20T21:20:10.099Z,13.70
2023-04-20T21:22:38.645Z,14.90
2023-04-20T21:25:07.834Z,15.05
2023-04-20T21:27:36.076Z,14.35
2023-04-20T21:30:04.522Z,14.55
2023-04-20T21:32:34.244Z,14.60
2023-04-20T21:35:02.757Z,14.32
2023-04-20T21:37:31.108Z,15.75
2023-04-20T21:39:59.448Z,16.90
2023-04-20T21:42:27.843Z,15.68
2023-04-20T21:44:56.179Z,15.18
2023-04-20T21:47:24.411Z,16.13
2023-04-20T21:49:54.202Z,17.08
2023-04-20T21:52:23.998Z,15.90
2023-04-20T21:54:52.316Z,15.55
2023-04-20T21:57:20.709Z,16.38
2023-04-20T21:59:48.942Z,14.73
2023-04-20T22:02:17.205Z,15.90
2023-04-20T22:04:45.877Z,14.88
2023-04-20T22:07:18.101Z,15.80
2023-04-20T22:09:46.289Z,14.38
2023-04-20T22:12:14.539Z,14.20
2023-04-20T22:14:42.758Z,14.82
2023-04-20T22:17:11.950Z,15.85
2023-04-20T22:19:40.296Z,14.65
2023-04-20T22:22:08.565Z,14.50
2023-04-20T22:24:38.314Z,14.48
2023-04-20T22:27:06.571Z,12.98
2023-04-20T22:29:34.922Z,12.35
2023-04-20T22:32:03.196Z,13.02
2023-04-20T22:34:31.705Z,13.65
2023-04-20T22:36:59.971Z,13.02
2023-04-20T22:39:28.252Z,12.40
2023-04-20T22:41:58.217Z,12.07
2023-04-20T22:44:26.403Z,13.45
2023-04-20T22:46:54.728Z,12.27
2023-04-20T22:49:23.234Z,13.18
2023-04-20T22:51:52.590Z,11.90
2023-04-20T22:54:20.824Z,12.15
2023-04-20T22:56:49.122Z,12.25
2023-04-20T22:59:19.793Z,13.27
2023-04-20T23:01:48.238Z,11.82
2023-04-20T23:04:16.779Z,12.45
2023-04-20T23:06:45.196Z,13.63
2023-04-20T23:09:17.162Z,12.63
2023-04-20T23:11:47.245Z,12.80
2023-04-20T23:14:15.674Z,12.05
2023-04-20T23:16:45.758Z,12.80
2023-04-20T23:19:14.027Z,12.15
2023-04-20T23:21:42.477Z,12.23
2023-04-20T23:24:10.922Z,11.07
2023-04-20T23:26:39.161Z,11.98
2023-04-20T23:29:07.649Z,12.38
2023-04-20T23:31:35.962Z,12.00
2023-04-20T23:34:05.695Z,12.38
2023-04-20T23:36:33.893Z,10.80
2023-04-20T23:39:02.129Z,12.60
2023-04-20T23:41:30.491Z,11.40
2023-04-20T23:43:58.767Z,12.55
2023-04-20T23:46:27.169Z,11.30
2023-04-20T23:48:55.641Z,11.80
2023-04-20T23:51:26.106Z,11.57
2023-04-20T23:53:54.413Z,11.57
2023-04-20T23:56:22.708Z,11.18
2023-04-20T23:58:51.108Z,11.57
